createdAt,value
2018-03-16T00:00:42.308Z,47
2018-03-16T00:05:42.020Z,47
2018-03-16T00:10:43.548Z,47
2018-03-16T00:15:41.470Z,47
2018-03-16T00:20:41.634Z,47
2018-03-16T00:25:41.276Z,47
2018-03-16T00:30:41.607Z,47
2018-03-16T00:35:41.700Z,47
2018-03-16T00:40:41.813Z,47
2018-03-16T00:45:41.245Z,47
2018-03-16T00:50:41.255Z,47
2018-03-16T00:55:42.006Z,47
2018-03-16T01:00:41.396Z,47
2018-03-16T01:05:42.049Z,47
2018-03-16T01:11:14.887Z,47
2018-03-16T01:15:41.724Z,47
2018-03-16T01:20:43.129Z,47
2018-03-16T01:26:22.480Z,47
2018-03-16T01:30:42.569Z,47
2018-03-16T01:35:43.415Z,47
2018-03-16T01:41:06.105Z,47
2018-03-16T01:45:44.322Z,47
2018-03-16T01:50:41.809Z,47
2018-03-16T01:55:45.319Z,47
2018-03-16T02:00:42.112Z,47
2018-03-16T02:05:56.728Z,47
2018-03-16T02:10:42.297Z,47
2018-03-16T02:15:42.425Z,47
2018-03-16T02:20:41.919Z,47
2018-03-16T02:25:41.694Z,47
2018-03-16T02:31:03.921Z,47
2018-03-16T02:35:41.531Z,47
2018-03-16T02:40:42.416Z,47
2018-03-16T02:45:43.582Z,47
2018-03-16T02:50:43.997Z,47
2018-03-16T02:55:41.693Z,47
2018-03-16T03:01:17.175Z,47
2018-03-16T03:05:41.500Z,47
2018-03-16T03:10:42.459Z,47
2018-03-16T03:20:09.271Z,47
2018-03-16T03:22:47.290Z,47
2018-03-16T03:25:41.330Z,47
2018-03-16T03:30:41.861Z,47
2018-03-16T03:35:41.845Z,47
2018-03-16T03:40:43.996Z,47
2018-03-16T03:45:43.385Z,47
2018-03-16T03:50:41.621Z,47
2018-03-16T03:56:35.813Z,47
2018-03-16T04:00:42.049Z,69
2018-03-16T04:05:42.033Z,69
2018-03-16T04:11:08.394Z,69
2018-03-16T04:15:41.499Z,69
2018-03-16T04:20:41.924Z,69
2018-03-16T04:25:41.269Z,69
2018-03-16T04:30:41.194Z,69
2018-03-16T04:35:41.096Z,69
2018-03-16T04:40:41.539Z,69
2018-03-16T04:45:40.860Z,69
2018-03-16T04:50:40.862Z,69
2018-03-16T04:55:41.159Z,69
2018-03-16T05:00:41.187Z,69
2018-03-16T05:05:41.250Z,69
2018-03-16T05:10:43.164Z,69
2018-03-16T05:15:44.621Z,69
2018-03-16T05:20:44.353Z,69
2018-03-16T05:25:43.634Z,69
2018-03-16T05:30:43.859Z,69
2018-03-16T05:35:41.142Z,69
2018-03-16T05:40:42.823Z,69
2018-03-16T05:45:44.057Z,69
2018-03-16T05:50:42.366Z,69
2018-03-16T05:55:41.331Z,69
2018-03-16T06:00:42.011Z,69
2018-03-16T06:05:43.762Z,69
2018-03-16T06:10:42.585Z,69
2018-03-16T06:15:43.081Z,69
2018-03-16T06:20:41.257Z,69
2018-03-16T06:25:42.414Z,69
2018-03-16T06:30:44.258Z,70
2018-03-16T06:35:42.361Z,70
2018-03-16T06:40:43.668Z,70
2018-03-16T06:45:57.614Z,70
2018-03-16T06:50:42.862Z,70
2018-03-16T06:55:41.103Z,70
2018-03-16T07:00:41.957Z,70
2018-03-16T07:05:43.051Z,70
2018-03-16T07:10:41.192Z,70
2018-03-16T07:15:42.256Z,69
2018-03-16T07:20:41.746Z,69
2018-03-16T07:25:57.749Z,69
2018-03-16T07:30:41.158Z,69
2018-03-16T07:35:41.383Z,69
2018-03-16T07:40:58.652Z,69
2018-03-16T07:45:41.853Z,69
2018-03-16T07:50:41.478Z,69
2018-03-16T07:55:41.249Z,69
2018-03-16T08:00:41.792Z,69
2018-03-16T08:05:42.588Z,68
2018-03-16T08:10:44.426Z,68
2018-03-16T08:15:41.745Z,68
2018-03-16T08:20:42.068Z,67
2018-03-16T08:25:41.296Z,67
2018-03-16T08:30:41.322Z,67
2018-03-16T08:35:41.001Z,67
2018-03-16T08:40:41.431Z,67
2018-03-16T08:45:41.053Z,66
2018-03-16T08:50:42.091Z,66
2018-03-16T08:55:42.193Z,66
2018-03-16T09:00:41.593Z,66
2018-03-16T09:05:42.602Z,66
2018-03-16T09:10:41.784Z,66
2018-03-16T09:15:41.172Z,65
2018-03-16T09:20:41.274Z,65
2018-03-16T09:25:41.081Z,65
2018-03-16T09:30:41.900Z,65
2018-03-16T09:35:42.211Z,65
2018-03-16T09:40:42.582Z,65
2018-03-16T09:45:42.115Z,65
2018-03-16T09:50:41.399Z,64
2018-03-16T09:55:41.602Z,64
2018-03-16T10:00:41.421Z,64
2018-03-16T10:05:44.345Z,64
2018-03-16T10:10:41.252Z,64
2018-03-16T10:15:42.138Z,64
2018-03-16T10:20:42.544Z,64
2018-03-16T10:25:41.086Z,64
2018-03-16T10:30:40.661Z,63
2018-03-16T10:35:41.810Z,63
2018-03-16T10:40:47.083Z,63
2018-03-16T10:45:47.984Z,63
2018-03-16T10:50:40.750Z,63
2018-03-16T10:55:41.881Z,62
2018-03-16T11:00:55.762Z,61
2018-03-16T11:05:41.152Z,61
2018-03-16T11:10:43.617Z,61
2018-03-16T11:15:59.306Z,61
2018-03-16T11:20:42.728Z,60
2018-03-16T11:25:41.101Z,60
2018-03-16T11:30:46.740Z,60
2018-03-16T11:35:41.031Z,59
2018-03-16T11:40:41.133Z,59
2018-03-16T11:45:56.994Z,59
2018-03-16T11:50:45.792Z,58
2018-03-16T11:55:41.768Z,58
2018-03-16T12:00:52.624Z,58
2018-03-16T12:05:41.111Z,57
2018-03-16T12:10:42.106Z,57
2018-03-16T12:15:47.907Z,57
2018-03-16T12:20:41.433Z,56
2018-03-16T12:25:42.556Z,56
2018-03-16T12:30:46.380Z,56
2018-03-16T12:35:41.322Z,56
2018-03-16T12:40:41.350Z,56
2018-03-16T12:45:46.261Z,55
2018-03-16T12:50:40.610Z,55
2018-03-16T12:55:42.648Z,55
2018-03-16T13:00:41.310Z,55
2018-03-16T13:05:42.194Z,55
2018-03-16T13:10:42.354Z,55
2018-03-16T13:15:41.679Z,55
2018-03-16T13:20:41.638Z,55
2018-03-16T13:25:42.482Z,55
2018-03-16T13:30:40.609Z,55
2018-03-16T13:35:40.962Z,55
2018-03-16T13:40:50.242Z,55
2018-03-16T13:45:43.631Z,55
2018-03-16T13:50:41.477Z,55
2018-03-16T13:55:41.194Z,55
2018-03-16T14:00:57.651Z,55
2018-03-16T14:05:41.921Z,55
2018-03-16T14:10:42.154Z,55
2018-03-16T14:15:48.708Z,55
2018-03-16T14:20:40.529Z,55
2018-03-16T14:25:42.175Z,55
2018-03-16T14:30:48.039Z,56
2018-03-16T14:35:40.707Z,56
2018-03-16T14:40:41.627Z,56
2018-03-16T14:45:45.674Z,56
2018-03-16T14:50:40.574Z,57
2018-03-16T14:55:40.541Z,57
2018-03-16T15:00:46.717Z,57
2018-03-16T15:05:41.054Z,57
2018-03-16T15:10:41.044Z,57
2018-03-16T15:15:45.381Z,57
2018-03-16T15:20:42.449Z,57
2018-03-16T15:25:41.675Z,57
2018-03-16T15:30:51.099Z,57
2018-03-16T15:35:41.604Z,57
2018-03-16T15:40:41.209Z,57
2018-03-16T15:45:48.286Z,57
2018-03-16T15:50:40.447Z,57
2018-03-16T15:55:40.769Z,57
2018-03-16T16:00:48.827Z,57
2018-03-16T16:05:40.540Z,57
2018-03-16T16:10:43.654Z,57
2018-03-16T16:15:53.900Z,57
2018-03-16T16:20:40.566Z,57
2018-03-16T16:25:41.646Z,57
2018-03-16T16:30:58.021Z,57
2018-03-16T16:35:40.894Z,57
2018-03-16T16:40:59.688Z,57
2018-03-16T16:45:47.114Z,57
2018-03-16T16:50:40.040Z,57
2018-03-16T16:55:40.846Z,57
2018-03-16T17:00:51.679Z,57
2018-03-16T17:05:39.947Z,57
2018-03-16T17:10:40.643Z,57
2018-03-16T17:15:54.776Z,57
2018-03-16T17:20:40.349Z,57
2018-03-16T17:25:40.448Z,57
2018-03-16T17:30:49.146Z,57
2018-03-16T17:35:41.190Z,57
2018-03-16T17:40:40.660Z,57
2018-03-16T17:45:50.882Z,57
2018-03-16T17:50:42.174Z,57
2018-03-16T17:55:40.651Z,53
2018-03-16T18:01:49.921Z,53
2018-03-16T18:05:40.390Z,53
2018-03-16T18:10:42.432Z,53
2018-03-16T18:16:12.575Z,53
2018-03-16T18:20:45.862Z,54
2018-03-16T18:25:40.812Z,54
2018-03-16T18:30:41.111Z,54
2018-03-16T18:35:42.957Z,53
2018-03-16T18:40:40.941Z,53
2018-03-16T18:45:41.432Z,53
2018-03-16T18:50:41.419Z,53
2018-03-16T18:55:40.126Z,53
2018-03-16T19:00:39.859Z,53
2018-03-16T19:05:41.004Z,53
2018-03-16T19:10:40.181Z,53
2018-03-16T19:15:40.465Z,53
2018-03-16T19:20:40.662Z,53
2018-03-16T19:25:40.278Z,53
2018-03-16T19:30:40.574Z,53
2018-03-16T19:35:54.494Z,53
2018-03-16T19:40:40.285Z,53
2018-03-16T19:45:42.749Z,53
2018-03-16T19:50:40.592Z,53
2018-03-16T19:55:40.820Z,53
2018-03-16T20:00:40.682Z,53
2018-03-16T20:05:40.602Z,53
2018-03-16T20:10:43.202Z,53
2018-03-16T20:15:40.017Z,53
2018-03-16T20:20:40.709Z,53
2018-03-16T20:25:42.394Z,53
2018-03-16T20:30:40.135Z,53
2018-03-16T20:35:40.336Z,53
2018-03-16T20:40:40.080Z,53
2018-03-16T20:45:40.246Z,53
2018-03-16T20:50:40.332Z,53
2018-03-16T20:55:40.161Z,53
2018-03-16T21:00:39.969Z,53
2018-03-16T21:05:40.904Z,53
2018-03-16T21:10:39.966Z,53
2018-03-16T21:15:40.018Z,53
2018-03-16T21:20:39.807Z,53
2018-03-16T21:25:40.380Z,53
2018-03-16T21:30:40.503Z,53
2018-03-16T21:35:41.512Z,53
2018-03-16T21:40:41.143Z,53
2018-03-16T21:45:40.932Z,52
2018-03-16T21:50:48.493Z,52
2018-03-16T21:55:39.798Z,52
2018-03-16T22:00:41.018Z,52
2018-03-16T22:05:45.122Z,52
2018-03-16T22:10:40.464Z,52
2018-03-16T22:15:40.589Z,52
2018-03-16T22:20:52.140Z,52
2018-03-16T22:25:39.475Z,52
2018-03-16T22:30:39.729Z,52
2018-03-16T22:35:45.458Z,51
2018-03-16T22:40:42.740Z,51
2018-03-16T22:45:40.750Z,51
2018-03-16T22:50:58.976Z,51
2018-03-16T22:55:40.515Z,51
2018-03-16T23:00:41.020Z,50
2018-03-16T23:05:56.080Z,50
2018-03-16T23:10:39.450Z,50
2018-03-16T23:15:40.029Z,50
2018-03-16T23:20:51.120Z,49
2018-03-16T23:25:40.262Z,49
2018-03-16T23:30:39.948Z,49
2018-03-16T23:35:54.651Z,48
2018-03-16T23:40:39.523Z,48
2018-03-16T23:45:39.940Z,48
2018-03-16T23:51:33.289Z,48
2018-03-16T23:55:39.634Z,48
